sensor_id;sensor_type;location;lat;lon;timestamp;P1;durP1;ratioP1;P2;durP2;ratioP2
3698;SDS011;1865;50.918;7.092;2022-07-12T00:00:55;22.93;;;13.17;;
3698;SDS011;1865;50.918;7.092;2022-07-12T00:03:20;23.37;;;13.30;;
3698;SDS011;1865;50.918;7.092;2022-07-12T00:05:46;21.03;;;12.80;;
3698;SDS011;1865;50.918;7.092;2022-07-12T00:08:12;22.53;;;13.77;;
3698;SDS011;1865;50.918;7.092;2022-07-12T00:10:37;23.60;;;12.20;;
3698;SDS011;1865;50.918;7.092;2022-07-12T00:13:03;18.87;;;12.70;;
3698;SDS011;1865;50.918;7.092;2022-07-12T00:15:29;19.90;;;11.80;;
3698;SDS011;1865;50.918;7.092;2022-07-12T00:17:55;20.20;;;14.03;;
3698;SDS011;1865;50.918;7.092;2022-07-12T00:20:21;19.70;;;13.37;;
3698;SDS011;1865;50.918;7.092;2022-07-12T00:22:47;19.67;;;13.00;;
3698;SDS011;1865;50.918;7.092;2022-07-12T00:25:13;20.60;;;11.40;;
3698;SDS011;1865;50.918;7.092;2022-07-12T00:27:41;19.00;;;12.37;;
3698;SDS011;1865;50.918;7.092;2022-07-12T00:30:08;23.90;;;13.33;;
3698;SDS011;1865;50.918;7.092;2022-07-12T00:32:34;19.40;;;12.80;;
3698;SDS011;1865;50.918;7.092;2022-07-12T00:34:59;19.53;;;12.87;;
3698;SDS011;1865;50.918;7.092;2022-07-12T00:37:25;19.63;;;13.03;;
3698;SDS011;1865;50.918;7.092;2022-07-12T00:39:51;19.90;;;12.30;;
3698;SDS011;1865;50.918;7.092;2022-07-12T00:42:16;19.57;;;12.53;;
3698;SDS011;1865;50.918;7.092;2022-07-12T00:44:42;18.60;;;12.03;;
3698;SDS011;1865;50.918;7.092;2022-07-12T00:47:08;18.80;;;12.07;;
3698;SDS011;1865;50.918;7.092;2022-07-12T00:49:54;19.00;;;12.10;;
3698;SDS011;1865;50.918;7.092;2022-07-12T00:52:20;21.27;;;13.40;;
3698;SDS011;1865;50.918;7.092;2022-07-12T00:54:45;24.20;;;13.37;;
3698;SDS011;1865;50.918;7.092;2022-07-12T00:57:11;19.17;;;12.73;;
3698;SDS011;1865;50.918;7.092;2022-07-12T00:59:37;22.50;;;12.83;;
3698;SDS011;1865;50.918;7.092;2022-07-12T01:02:02;19.70;;;12.70;;
3698;SDS011;1865;50.918;7.092;2022-07-12T01:04:28;19.60;;;12.53;;
3698;SDS011;1865;50.918;7.092;2022-07-12T01:06:54;20.13;;;12.40;;
3698;SDS011;1865;50.918;7.092;2022-07-12T01:09:20;20.20;;;12.63;;
3698;SDS011;1865;50.918;7.092;2022-07-12T01:11:45;20.23;;;12.57;;
3698;SDS011;1865;50.918;7.092;2022-07-12T01:14:11;19.33;;;12.20;;
3698;SDS011;1865;50.918;7.092;2022-07-12T01:16:38;16.20;;;10.93;;
3698;SDS011;1865;50.918;7.092;2022-07-12T01:19:04;20.40;;;11.80;;
3698;SDS011;1865;50.918;7.092;2022-07-12T01:21:31;20.40;;;12.80;;
3698;SDS011;1865;50.918;7.092;2022-07-12T01:24:02;21.73;;;12.07;;
3698;SDS011;1865;50.918;7.092;2022-07-12T01:26:29;18.43;;;11.60;;
3698;SDS011;1865;50.918;7.092;2022-07-12T01:28:55;19.70;;;12.70;;
3698;SDS011;1865;50.918;7.092;2022-07-12T01:31:21;24.43;;;12.43;;
3698;SDS011;1865;50.918;7.092;2022-07-12T01:33:47;18.70;;;12.53;;
3698;SDS011;1865;50.918;7.092;2022-07-12T01:36:12;17.97;;;11.83;;
3698;SDS011;1865;50.918;7.092;2022-07-12T01:38:38;17.93;;;12.40;;
3698;SDS011;1865;50.918;7.092;2022-07-12T01:41:04;20.13;;;12.20;;
3698;SDS011;1865;50.918;7.092;2022-07-12T01:43:30;17.67;;;12.07;;
3698;SDS011;1865;50.918;7.092;2022-07-12T01:45:55;18.10;;;11.87;;
3698;SDS011;1865;50.918;7.092;2022-07-12T01:48:21;17.97;;;11.43;;
3698;SDS011;1865;50.918;7.092;2022-07-12T01:50:47;16.27;;;11.47;;
3698;SDS011;1865;50.918;7.092;2022-07-12T01:53:12;16.23;;;10.70;;
3698;SDS011;1865;50.918;7.092;2022-07-12T01:55:39;16.60;;;11.07;;
3698;SDS011;1865;50.918;7.092;2022-07-12T01:58:05;17.40;;;12.23;;
3698;SDS011;1865;50.918;7.092;2022-07-12T02:00:31;16.60;;;11.13;;
3698;SDS011;1865;50.918;7.092;2022-07-12T02:02:57;17.30;;;11.23;;
3698;SDS011;1865;50.918;7.092;2022-07-12T02:05:22;19.40;;;11.40;;
3698;SDS011;1865;50.918;7.092;2022-07-12T02:07:49;17.37;;;10.60;;
3698;SDS011;1865;50.918;7.092;2022-07-12T02:10:15;15.33;;;10.90;;
3698;SDS011;1865;50.918;7.092;2022-07-12T02:12:40;15.40;;;10.70;;
3698;SDS011;1865;50.918;7.092;2022-07-12T02:15:06;23.67;;;11.53;;
3698;SDS011;1865;50.918;7.092;2022-07-12T02:17:33;15.47;;;11.07;;
3698;SDS011;1865;50.918;7.092;2022-07-12T02:19:58;15.60;;;10.50;;
3698;SDS011;1865;50.918;7.092;2022-07-12T02:22:24;21.33;;;12.50;;
3698;SDS011;1865;50.918;7.092;2022-07-12T02:24:50;16.27;;;10.67;;
3698;SDS011;1865;50.918;7.092;2022-07-12T02:27:15;16.17;;;10.63;;
3698;SDS011;1865;50.918;7.092;2022-07-12T02:29:41;15.13;;;10.47;;
3698;SDS011;1865;50.918;7.092;2022-07-12T02:32:07;16.47;;;10.67;;
3698;SDS011;1865;50.918;7.092;2022-07-12T02:34:33;17.77;;;11.00;;
3698;SDS011;1865;50.918;7.092;2022-07-12T02:36:58;14.90;;;9.90;;
3698;SDS011;1865;50.918;7.092;2022-07-12T02:39:24;16.63;;;10.70;;
3698;SDS011;1865;50.918;7.092;2022-07-12T02:41:50;17.17;;;10.37;;
3698;SDS011;1865;50.918;7.092;2022-07-12T02:44:16;17.20;;;11.53;;
3698;SDS011;1865;50.918;7.092;2022-07-12T02:46:41;20.63;;;11.97;;
3698;SDS011;1865;50.918;7.092;2022-07-12T02:49:07;18.47;;;11.73;;
3698;SDS011;1865;50.918;7.092;2022-07-12T02:51:33;18.07;;;10.23;;
3698;SDS011;1865;50.918;7.092;2022-07-12T02:53:58;19.40;;;12.40;;
3698;SDS011;1865;50.918;7.092;2022-07-12T02:56:24;16.50;;;11.30;;
3698;SDS011;1865;50.918;7.092;2022-07-12T02:58:50;14.90;;;10.83;;
3698;SDS011;1865;50.918;7.092;2022-07-12T03:01:16;14.90;;;10.13;;
3698;SDS011;1865;50.918;7.092;2022-07-12T03:03:42;15.80;;;10.07;;
3698;SDS011;1865;50.918;7.092;2022-07-12T03:06:07;17.00;;;10.87;;
3698;SDS011;1865;50.918;7.092;2022-07-12T03:08:33;16.73;;;10.93;;
3698;SDS011;1865;50.918;7.092;2022-07-12T03:10:59;15.53;;;10.80;;
3698;SDS011;1865;50.918;7.092;2022-07-12T03:13:24;17.13;;;10.90;;
3698;SDS011;1865;50.918;7.092;2022-07-12T03:15:50;14.60;;;9.63;;
3698;SDS011;1865;50.918;7.092;2022-07-12T03:18:16;15.10;;;9.60;;
3698;SDS011;1865;50.918;7.092;2022-07-12T03:20:42;15.77;;;10.10;;
3698;SDS011;1865;50.918;7.092;2022-07-12T03:23:08;16.07;;;10.80;;
3698;SDS011;1865;50.918;7.092;2022-07-12T03:25:34;16.00;;;10.43;;
3698;SDS011;1865;50.918;7.092;2022-07-12T03:28:00;15.70;;;10.47;;
3698;SDS011;1865;50.918;7.092;2022-07-12T03:30:26;15.00;;;9.80;;
3698;SDS011;1865;50.918;7.092;2022-07-12T03:32:52;15.10;;;9.97;;
3698;SDS011;1865;50.918;7.092;2022-07-12T03:35:19;14.20;;;9.00;;
3698;SDS011;1865;50.918;7.092;2022-07-12T03:37:45;20.17;;;11.27;;
3698;SDS011;1865;50.918;7.092;2022-07-12T03:40:13;15.97;;;10.60;;
3698;SDS011;1865;50.918;7.092;2022-07-12T03:42:39;16.13;;;8.80;;
3698;SDS011;1865;50.918;7.092;2022-07-12T03:45:05;15.27;;;9.40;;
3698;SDS011;1865;50.918;7.092;2022-07-12T03:47:31;15.03;;;10.30;;
3698;SDS011;1865;50.918;7.092;2022-07-12T03:50:00;14.70;;;9.93;;
3698;SDS011;1865;50.918;7.092;2022-07-12T03:52:27;13.63;;;9.23;;
3698;SDS011;1865;50.918;7.092;2022-07-12T03:54:52;14.07;;;9.90;;
3698;SDS011;1865;50.918;7.092;2022-07-12T03:57:18;15.10;;;9.13;;
3698;SDS011;1865;50.918;7.092;2022-07-12T03:59:44;14.77;;;10.17;;
3698;SDS011;1865;50.918;7.092;2022-07-12T04:02:11;14.30;;;10.10;;
3698;SDS011;1865;50.918;7.092;2022-07-12T04:04:37;14.50;;;9.33;;
3698;SDS011;1865;50.918;7.092;2022-07-12T04:07:04;15.50;;;9.40;;
3698;SDS011;1865;50.918;7.092;2022-07-12T04:09:30;14.60;;;9.07;;
3698;SDS011;1865;50.918;7.092;2022-07-12T04:11:57;15.43;;;9.57;;
3698;SDS011;1865;50.918;7.092;2022-07-12T04:14:22;18.03;;;9.80;;
3698;SDS011;1865;50.918;7.092;2022-07-12T04:16:48;15.00;;;10.27;;
3698;SDS011;1865;50.918;7.092;2022-07-12T04:19:14;14.40;;;9.80;;
3698;SDS011;1865;50.918;7.092;2022-07-12T04:21:39;14.83;;;9.73;;
3698;SDS011;1865;50.918;7.092;2022-07-12T04:24:05;16.57;;;10.50;;
3698;SDS011;1865;50.918;7.092;2022-07-12T04:26:31;12.73;;;8.53;;
3698;SDS011;1865;50.918;7.092;2022-07-12T04:28:57;15.50;;;9.30;;
3698;SDS011;1865;50.918;7.092;2022-07-12T04:31:23;13.30;;;9.20;;
3698;SDS011;1865;50.918;7.092;2022-07-12T04:33:49;14.27;;;9.97;;
3698;SDS011;1865;50.918;7.092;2022-07-12T04:36:15;17.37;;;9.83;;
3698;SDS011;1865;50.918;7.092;2022-07-12T04:38:40;13.40;;;9.27;;
3698;SDS011;1865;50.918;7.092;2022-07-12T04:41:06;15.07;;;10.00;;
3698;SDS011;1865;50.918;7.092;2022-07-12T04:43:32;13.80;;;9.70;;
3698;SDS011;1865;50.918;7.092;2022-07-12T04:46:07;14.00;;;10.60;;
3698;SDS011;1865;50.918;7.092;2022-07-12T04:48:33;19.30;;;10.60;;
3698;SDS011;1865;50.918;7.092;2022-07-12T04:50:59;14.33;;;10.23;;
3698;SDS011;1865;50.918;7.092;2022-07-12T04:53:24;13.67;;;9.50;;
3698;SDS011;1865;50.918;7.092;2022-07-12T04:55:50;14.57;;;10.27;;
3698;SDS011;1865;50.918;7.092;2022-07-12T04:58:15;19.27;;;10.40;;
3698;SDS011;1865;50.918;7.092;2022-07-12T05:00:41;14.30;;;10.33;;
3698;SDS011;1865;50.918;7.092;2022-07-12T05:03:06;13.40;;;8.90;;
3698;SDS011;1865;50.918;7.092;2022-07-12T05:05:32;15.80;;;10.37;;
3698;SDS011;1865;50.918;7.092;2022-07-12T05:07:58;13.43;;;9.70;;
3698;SDS011;1865;50.918;7.092;2022-07-12T05:10:23;13.10;;;9.50;;
3698;SDS011;1865;50.918;7.092;2022-07-12T05:12:49;16.30;;;10.80;;
3698;SDS011;1865;50.918;7.092;2022-07-12T05:15:14;15.40;;;10.40;;
3698;SDS011;1865;50.918;7.092;2022-07-12T05:17:40;14.23;;;10.00;;
3698;SDS011;1865;50.918;7.092;2022-07-12T05:20:06;14.40;;;10.37;;
3698;SDS011;1865;50.918;7.092;2022-07-12T05:22:32;14.83;;;9.93;;
3698;SDS011;1865;50.918;7.092;2022-07-12T05:24:57;13.70;;;10.20;;
3698;SDS011;1865;50.918;7.092;2022-07-12T05:27:23;14.00;;;10.07;;
3698;SDS011;1865;50.918;7.092;2022-07-12T05:29:49;13.37;;;9.90;;
3698;SDS011;1865;50.918;7.092;2022-07-12T05:32:14;17.40;;;10.90;;
3698;SDS011;1865;50.918;7.092;2022-07-12T05:34:40;14.20;;;10.43;;
3698;SDS011;1865;50.918;7.092;2022-07-12T05:37:05;15.10;;;11.03;;
3698;SDS011;1865;50.918;7.092;2022-07-12T05:39:31;12.00;;;9.00;;
3698;SDS011;1865;50.918;7.092;2022-07-12T05:41:56;15.10;;;10.30;;
3698;SDS011;1865;50.918;7.092;2022-07-12T05:44:22;17.67;;;11.50;;
3698;SDS011;1865;50.918;7.092;2022-07-12T05:46:48;14.50;;;10.00;;
3698;SDS011;1865;50.918;7.092;2022-07-12T05:49:13;14.37;;;10.00;;
3698;SDS011;1865;50.918;7.092;2022-07-12T05:51:39;13.87;;;9.90;;
3698;SDS011;1865;50.918;7.092;2022-07-12T05:54:23;12.67;;;9.27;;
3698;SDS011;1865;50.918;7.092;2022-07-12T05:56:49;13.60;;;9.90;;
3698;SDS011;1865;50.918;7.092;2022-07-12T05:59:16;12.23;;;8.40;;
3698;SDS011;1865;50.918;7.092;2022-07-12T06:01:42;17.33;;;8.80;;
3698;SDS011;1865;50.918;7.092;2022-07-12T06:04:07;12.10;;;8.13;;
3698;SDS011;1865;50.918;7.092;2022-07-12T06:06:33;12.40;;;8.30;;
3698;SDS011;1865;50.918;7.092;2022-07-12T06:08:59;14.07;;;8.20;;
3698;SDS011;1865;50.918;7.092;2022-07-12T06:11:24;14.03;;;8.07;;
3698;SDS011;1865;50.918;7.092;2022-07-12T06:13:50;12.50;;;8.50;;
3698;SDS011;1865;50.918;7.092;2022-07-12T06:16:16;14.57;;;8.57;;
3698;SDS011;1865;50.918;7.092;2022-07-12T06:18:42;10.60;;;6.80;;
3698;SDS011;1865;50.918;7.092;2022-07-12T06:21:07;11.90;;;7.33;;
3698;SDS011;1865;50.918;7.092;2022-07-12T06:23:33;13.17;;;7.30;;
3698;SDS011;1865;50.918;7.092;2022-07-12T06:25:59;14.33;;;7.87;;
3698;SDS011;1865;50.918;7.092;2022-07-12T06:28:25;14.80;;;8.37;;
3698;SDS011;1865;50.918;7.092;2022-07-12T06:30:50;12.93;;;8.10;;
3698;SDS011;1865;50.918;7.092;2022-07-12T06:33:16;12.67;;;8.07;;
3698;SDS011;1865;50.918;7.092;2022-07-12T06:35:41;12.97;;;7.90;;
3698;SDS011;1865;50.918;7.092;2022-07-12T06:38:07;12.37;;;8.00;;
3698;SDS011;1865;50.918;7.092;2022-07-12T06:40:32;11.67;;;7.60;;
3698;SDS011;1865;50.918;7.092;2022-07-12T06:42:58;12.40;;;7.77;;
3698;SDS011;1865;50.918;7.092;2022-07-12T06:45:24;12.17;;;8.00;;
3698;SDS011;1865;50.918;7.092;2022-07-12T06:47:53;12.47;;;7.10;;
3698;SDS011;1865;50.918;7.092;2022-07-12T06:50:19;11.47;;;7.10;;
3698;SDS011;1865;50.918;7.092;2022-07-12T06:52:44;11.73;;;7.40;;
3698;SDS011;1865;50.918;7.092;2022-07-12T06:55:10;13.40;;;6.43;;
3698;SDS011;1865;50.918;7.092;2022-07-12T06:57:36;11.23;;;6.60;;
3698;SDS011;1865;50.918;7.092;2022-07-12T07:00:03;12.03;;;7.10;;
3698;SDS011;1865;50.918;7.092;2022-07-12T07:02:30;13.00;;;6.37;;
3698;SDS011;1865;50.918;7.092;2022-07-12T07:04:55;10.57;;;6.50;;
3698;SDS011;1865;50.918;7.092;2022-07-12T07:07:21;10.70;;;6.40;;
3698;SDS011;1865;50.918;7.092;2022-07-12T07:09:46;10.73;;;6.10;;
3698;SDS011;1865;50.918;7.092;2022-07-12T07:12:12;11.13;;;6.87;;
3698;SDS011;1865;50.918;7.092;2022-07-12T07:14:37;10.57;;;6.50;;
3698;SDS011;1865;50.918;7.092;2022-07-12T07:17:03;11.60;;;6.87;;
3698;SDS011;1865;50.918;7.092;2022-07-12T07:19:29;9.90;;;5.50;;
3698;SDS011;1865;50.918;7.092;2022-07-12T07:21:55;11.27;;;5.97;;
3698;SDS011;1865;50.918;7.092;2022-07-12T07:24:21;9.37;;;6.00;;
3698;SDS011;1865;50.918;7.092;2022-07-12T07:26:47;11.10;;;7.03;;
3698;SDS011;1865;50.918;7.092;2022-07-12T07:29:14;10.67;;;6.30;;
3698;SDS011;1865;50.918;7.092;2022-07-12T07:31:58;11.80;;;6.83;;
3698;SDS011;1865;50.918;7.092;2022-07-12T07:34:24;10.73;;;6.50;;
3698;SDS011;1865;50.918;7.092;2022-07-12T07:36:50;9.20;;;5.70;;
3698;SDS011;1865;50.918;7.092;2022-07-12T07:39:16;16.07;;;5.33;;
3698;SDS011;1865;50.918;7.092;2022-07-12T07:41:42;10.67;;;5.00;;
3698;SDS011;1865;50.918;7.092;2022-07-12T07:44:07;9.97;;;4.50;;
3698;SDS011;1865;50.918;7.092;2022-07-12T07:46:33;10.90;;;4.87;;
3698;SDS011;1865;50.918;7.092;2022-07-12T07:48:59;12.93;;;5.33;;
3698;SDS011;1865;50.918;7.092;2022-07-12T07:51:24;11.07;;;4.77;;
3698;SDS011;1865;50.918;7.092;2022-07-12T07:53:50;13.37;;;4.47;;
3698;SDS011;1865;50.918;7.092;2022-07-12T07:56:15;10.20;;;4.90;;
3698;SDS011;1865;50.918;7.092;2022-07-12T07:58:41;8.97;;;4.77;;
3698;SDS011;1865;50.918;7.092;2022-07-12T08:01:07;10.97;;;4.60;;
3698;SDS011;1865;50.918;7.092;2022-07-12T08:03:32;9.70;;;5.00;;
3698;SDS011;1865;50.918;7.092;2022-07-12T08:05:58;8.90;;;4.90;;
3698;SDS011;1865;50.918;7.092;2022-07-12T08:08:25;9.03;;;4.20;;
3698;SDS011;1865;50.918;7.092;2022-07-12T08:10:51;9.43;;;4.30;;
3698;SDS011;1865;50.918;7.092;2022-07-12T08:13:17;8.47;;;4.40;;
3698;SDS011;1865;50.918;7.092;2022-07-12T08:15:43;8.40;;;3.93;;
3698;SDS011;1865;50.918;7.092;2022-07-12T08:18:09;10.47;;;4.60;;
3698;SDS011;1865;50.918;7.092;2022-07-12T08:20:34;9.40;;;4.27;;
3698;SDS011;1865;50.918;7.092;2022-07-12T08:23:00;8.17;;;4.00;;
3698;SDS011;1865;50.918;7.092;2022-07-12T08:25:25;10.20;;;4.10;;
3698;SDS011;1865;50.918;7.092;2022-07-12T08:27:51;10.30;;;3.97;;
3698;SDS011;1865;50.918;7.092;2022-07-12T08:30:17;9.90;;;5.10;;
3698;SDS011;1865;50.918;7.092;2022-07-12T08:32:43;8.70;;;4.80;;
3698;SDS011;1865;50.918;7.092;2022-07-12T08:35:12;18.70;;;5.60;;
3698;SDS011;1865;50.918;7.092;2022-07-12T08:37:39;8.70;;;5.00;;
3698;SDS011;1865;50.918;7.092;2022-07-12T08:40:05;9.70;;;4.93;;
3698;SDS011;1865;50.918;7.092;2022-07-12T08:42:32;9.70;;;5.20;;
3698;SDS011;1865;50.918;7.092;2022-07-12T08:44:58;9.57;;;4.50;;
3698;SDS011;1865;50.918;7.092;2022-07-12T08:47:24;8.90;;;3.80;;
3698;SDS011;1865;50.918;7.092;2022-07-12T08:50:09;8.47;;;3.43;;
3698;SDS011;1865;50.918;7.092;2022-07-12T08:52:43;8.43;;;3.80;;
3698;SDS011;1865;50.918;7.092;2022-07-12T08:57:43;8.47;;;3.70;;
3698;SDS011;1865;50.918;7.092;2022-07-12T09:00:09;13.00;;;3.30;;
3698;SDS011;1865;50.918;7.092;2022-07-12T09:05:21;8.90;;;3.30;;
3698;SDS011;1865;50.918;7.092;2022-07-12T09:07:50;8.10;;;3.43;;
3698;SDS011;1865;50.918;7.092;2022-07-12T09:10:25;8.90;;;3.63;;
3698;SDS011;1865;50.918;7.092;2022-07-12T09:12:51;7.77;;;2.90;;
3698;SDS011;1865;50.918;7.092;2022-07-12T09:15:17;8.00;;;3.50;;
3698;SDS011;1865;50.918;7.092;2022-07-12T09:18:00;8.73;;;3.27;;
3698;SDS011;1865;50.918;7.092;2022-07-12T09:20:29;7.60;;;2.90;;
3698;SDS011;1865;50.918;7.092;2022-07-12T09:22:56;8.10;;;3.07;;
3698;SDS011;1865;50.918;7.092;2022-07-12T09:25:24;10.17;;;3.00;;
3698;SDS011;1865;50.918;7.092;2022-07-12T09:27:50;7.07;;;2.30;;
3698;SDS011;1865;50.918;7.092;2022-07-12T09:30:18;8.13;;;2.77;;
3698;SDS011;1865;50.918;7.092;2022-07-12T09:36:06;8.57;;;2.80;;
3698;SDS011;1865;50.918;7.092;2022-07-12T09:38:31;8.67;;;3.03;;
3698;SDS011;1865;50.918;7.092;2022-07-12T09:41:01;8.03;;;2.63;;
3698;SDS011;1865;50.918;7.092;2022-07-12T09:43:28;7.87;;;2.80;;
3698;SDS011;1865;50.918;7.092;2022-07-12T09:45:55;8.30;;;2.63;;
3698;SDS011;1865;50.918;7.092;2022-07-12T09:48:21;9.40;;;2.50;;
3698;SDS011;1865;50.918;7.092;2022-07-12T09:50:48;7.90;;;2.63;;
3698;SDS011;1865;50.918;7.092;2022-07-12T09:53:49;9.57;;;2.40;;
3698;SDS011;1865;50.918;7.092;2022-07-12T09:56:10;9.23;;;2.57;;
3698;SDS011;1865;50.918;7.092;2022-07-12T09:58:40;9.30;;;2.20;;
3698;SDS011;1865;50.918;7.092;2022-07-12T10:01:13;8.73;;;2.50;;
3698;SDS011;1865;50.918;7.092;2022-07-12T10:03:41;7.30;;;2.30;;
3698;SDS011;1865;50.918;7.092;2022-07-12T10:06:08;7.47;;;1.70;;
3698;SDS011;1865;50.918;7.092;2022-07-12T10:08:34;7.00;;;1.80;;
3698;SDS011;1865;50.918;7.092;2022-07-12T10:11:00;7.33;;;1.60;;
3698;SDS011;1865;50.918;7.092;2022-07-12T10:13:26;6.80;;;1.67;;
3698;SDS011;1865;50.918;7.092;2022-07-12T10:15:57;9.93;;;1.77;;
3698;SDS011;1865;50.918;7.092;2022-07-12T10:18:25;7.00;;;1.70;;
3698;SDS011;1865;50.918;7.092;2022-07-12T10:20:51;6.90;;;1.73;;
3698;SDS011;1865;50.918;7.092;2022-07-12T10:25:42;6.80;;;1.83;;
3698;SDS011;1865;50.918;7.092;2022-07-12T10:28:08;19.33;;;1.80;;
3698;SDS011;1865;50.918;7.092;2022-07-12T10:35:45;7.30;;;1.40;;
3698;SDS011;1865;50.918;7.092;2022-07-12T10:38:32;6.80;;;1.47;;
3698;SDS011;1865;50.918;7.092;2022-07-12T10:41:15;7.60;;;1.57;;
3698;SDS011;1865;50.918;7.092;2022-07-12T10:43:43;7.03;;;1.37;;
3698;SDS011;1865;50.918;7.092;2022-07-12T10:46:27;6.33;;;1.30;;
3698;SDS011;1865;50.918;7.092;2022-07-12T10:49:41;6.87;;;1.30;;
3698;SDS011;1865;50.918;7.092;2022-07-12T10:55:20;6.60;;;1.43;;
3698;SDS011;1865;50.918;7.092;2022-07-12T10:57:39;6.53;;;1.30;;
3698;SDS011;1865;50.918;7.092;2022-07-12T11:00:08;7.90;;;1.03;;
3698;SDS011;1865;50.918;7.092;2022-07-12T11:02:35;7.87;;;1.40;;
3698;SDS011;1865;50.918;7.092;2022-07-12T11:05:01;6.70;;;1.60;;
3698;SDS011;1865;50.918;7.092;2022-07-12T11:07:27;7.57;;;1.37;;
3698;SDS011;1865;50.918;7.092;2022-07-12T11:09:53;6.60;;;1.53;;
3698;SDS011;1865;50.918;7.092;2022-07-12T11:12:20;6.20;;;1.23;;
3698;SDS011;1865;50.918;7.092;2022-07-12T11:14:46;6.50;;;1.30;;
3698;SDS011;1865;50.918;7.092;2022-07-12T11:17:12;6.40;;;1.40;;
3698;SDS011;1865;50.918;7.092;2022-07-12T11:19:37;6.63;;;1.53;;
3698;SDS011;1865;50.918;7.092;2022-07-12T11:22:03;6.90;;;1.63;;
3698;SDS011;1865;50.918;7.092;2022-07-12T11:24:33;6.10;;;1.20;;
3698;SDS011;1865;50.918;7.092;2022-07-12T11:27:03;6.10;;;1.20;;
3698;SDS011;1865;50.918;7.092;2022-07-12T11:29:30;5.90;;;1.00;;
3698;SDS011;1865;50.918;7.092;2022-07-12T11:31:59;6.20;;;1.10;;
3698;SDS011;1865;50.918;7.092;2022-07-12T11:34:28;5.93;;;1.10;;
3698;SDS011;1865;50.918;7.092;2022-07-12T11:36:55;5.67;;;1.00;;
3698;SDS011;1865;50.918;7.092;2022-07-12T11:39:55;5.87;;;1.13;;
3698;SDS011;1865;50.918;7.092;2022-07-12T11:42:15;6.17;;;1.20;;
3698;SDS011;1865;50.918;7.092;2022-07-12T11:44:48;6.30;;;1.30;;
3698;SDS011;1865;50.918;7.092;2022-07-12T11:47:15;5.87;;;0.97;;
3698;SDS011;1865;50.918;7.092;2022-07-12T11:49:44;6.30;;;1.30;;
3698;SDS011;1865;50.918;7.092;2022-07-12T11:52:17;6.20;;;1.40;;
3698;SDS011;1865;50.918;7.092;2022-07-12T11:54:51;7.33;;;1.43;;
3698;SDS011;1865;50.918;7.092;2022-07-12T11:57:21;6.83;;;1.27;;
3698;SDS011;1865;50.918;7.092;2022-07-12T11:59:50;6.00;;;1.17;;
3698;SDS011;1865;50.918;7.092;2022-07-12T12:02:16;7.53;;;1.20;;
3698;SDS011;1865;50.918;7.092;2022-07-12T12:04:52;6.73;;;1.43;;
3698;SDS011;1865;50.918;7.092;2022-07-12T12:07:19;6.63;;;1.37;;
3698;SDS011;1865;50.918;7.092;2022-07-12T12:15:11;7.60;;;1.40;;
3698;SDS011;1865;50.918;7.092;2022-07-12T12:17:42;6.47;;;1.07;;
3698;SDS011;1865;50.918;7.092;2022-07-12T12:20:15;6.83;;;1.30;;
3698;SDS011;1865;50.918;7.092;2022-07-12T12:22:42;6.30;;;1.20;;
3698;SDS011;1865;50.918;7.092;2022-07-12T12:25:08;6.30;;;0.90;;
3698;SDS011;1865;50.918;7.092;2022-07-12T12:27:45;7.50;;;1.20;;
3698;SDS011;1865;50.918;7.092;2022-07-12T12:30:12;6.63;;;1.10;;
3698;SDS011;1865;50.918;7.092;2022-07-12T12:32:42;5.70;;;1.00;;
3698;SDS011;1865;50.918;7.092;2022-07-12T12:35:09;6.00;;;1.03;;
3698;SDS011;1865;50.918;7.092;2022-07-12T12:37:36;5.60;;;0.83;;
3698;SDS011;1865;50.918;7.092;2022-07-12T12:40:02;6.20;;;1.00;;
3698;SDS011;1865;50.918;7.092;2022-07-12T12:42:29;5.97;;;1.10;;
3698;SDS011;1865;50.918;7.092;2022-07-12T12:44:54;5.60;;;0.80;;
3698;SDS011;1865;50.918;7.092;2022-07-12T12:47:20;5.90;;;0.93;;
3698;SDS011;1865;50.918;7.092;2022-07-12T12:49:59;6.33;;;1.00;;
3698;SDS011;1865;50.918;7.092;2022-07-12T12:52:26;9.13;;;1.10;;
3698;SDS011;1865;50.918;7.092;2022-07-12T12:54:53;5.50;;;0.90;;
3698;SDS011;1865;50.918;7.092;2022-07-12T12:57:20;5.90;;;1.10;;
3698;SDS011;1865;50.918;7.092;2022-07-12T12:59:46;5.87;;;1.00;;
3698;SDS011;1865;50.918;7.092;2022-07-12T13:02:12;5.57;;;0.90;;
3698;SDS011;1865;50.918;7.092;2022-07-12T13:04:38;6.50;;;1.23;;
3698;SDS011;1865;50.918;7.092;2022-07-12T13:07:04;6.47;;;1.03;;
3698;SDS011;1865;50.918;7.092;2022-07-12T13:09:31;7.07;;;1.27;;
3698;SDS011;1865;50.918;7.092;2022-07-12T13:11:57;6.70;;;1.10;;
3698;SDS011;1865;50.918;7.092;2022-07-12T13:14:24;8.43;;;1.20;;
3698;SDS011;1865;50.918;7.092;2022-07-12T13:16:50;6.90;;;1.30;;
3698;SDS011;1865;50.918;7.092;2022-07-12T13:19:15;6.60;;;1.30;;
3698;SDS011;1865;50.918;7.092;2022-07-12T13:21:41;6.40;;;1.10;;
3698;SDS011;1865;50.918;7.092;2022-07-12T13:24:07;6.43;;;1.00;;
3698;SDS011;1865;50.918;7.092;2022-07-12T13:26:32;6.30;;;1.00;;
3698;SDS011;1865;50.918;7.092;2022-07-12T13:28:58;5.77;;;1.20;;
3698;SDS011;1865;50.918;7.092;2022-07-12T13:31:24;6.07;;;0.87;;
3698;SDS011;1865;50.918;7.092;2022-07-12T13:33:53;5.10;;;0.80;;
3698;SDS011;1865;50.918;7.092;2022-07-12T13:36:21;6.90;;;1.00;;
3698;SDS011;1865;50.918;7.092;2022-07-12T13:38:47;5.30;;;1.00;;
3698;SDS011;1865;50.918;7.092;2022-07-12T13:41:13;4.87;;;0.70;;
3698;SDS011;1865;50.918;7.092;2022-07-12T13:43:40;5.00;;;0.77;;
3698;SDS011;1865;50.918;7.092;2022-07-12T13:46:06;10.57;;;0.90;;
3698;SDS011;1865;50.918;7.092;2022-07-12T13:48:31;8.90;;;0.80;;
3698;SDS011;1865;50.918;7.092;2022-07-12T13:50:58;5.25;;;0.95;;
3698;SDS011;1865;50.918;7.092;2022-07-12T13:53:24;8.35;;;0.70;;
3698;SDS011;1865;50.918;7.092;2022-07-12T13:55:49;4.90;;;0.80;;
3698;SDS011;1865;50.918;7.092;2022-07-12T13:58:15;4.70;;;0.70;;
3698;SDS011;1865;50.918;7.092;2022-07-12T14:00:40;5.07;;;0.82;;
3698;SDS011;1865;50.918;7.092;2022-07-12T14:03:07;5.43;;;0.73;;
3698;SDS011;1865;50.918;7.092;2022-07-12T14:05:33;7.25;;;1.10;;
3698;SDS011;1865;50.918;7.092;2022-07-12T14:07:59;4.55;;;0.60;;
3698;SDS011;1865;50.918;7.092;2022-07-12T14:10:24;4.55;;;0.68;;
3698;SDS011;1865;50.918;7.092;2022-07-12T14:12:51;4.90;;;0.75;;
3698;SDS011;1865;50.918;7.092;2022-07-12T14:15:17;5.83;;;0.80;;
3698;SDS011;1865;50.918;7.092;2022-07-12T14:18:02;5.50;;;0.70;;
3698;SDS011;1865;50.918;7.092;2022-07-12T14:20:32;5.83;;;1.10;;
3698;SDS011;1865;50.918;7.092;2022-07-12T14:23:01;6.87;;;1.00;;
3698;SDS011;1865;50.918;7.092;2022-07-12T14:25:27;5.30;;;0.90;;
3698;SDS011;1865;50.918;7.092;2022-07-12T14:27:53;5.90;;;1.00;;
3698;SDS011;1865;50.918;7.092;2022-07-12T14:30:19;6.23;;;0.97;;
3698;SDS011;1865;50.918;7.092;2022-07-12T14:32:44;6.90;;;1.10;;
3698;SDS011;1865;50.918;7.092;2022-07-12T14:35:10;7.13;;;1.47;;
3698;SDS011;1865;50.918;7.092;2022-07-12T14:37:36;7.40;;;1.00;;
3698;SDS011;1865;50.918;7.092;2022-07-12T14:40:05;22.17;;;1.33;;
3698;SDS011;1865;50.918;7.092;2022-07-12T14:42:31;6.70;;;1.63;;
3698;SDS011;1865;50.918;7.092;2022-07-12T14:44:57;9.13;;;1.80;;
3698;SDS011;1865;50.918;7.092;2022-07-12T14:47:23;12.50;;;1.43;;
3698;SDS011;1865;50.918;7.092;2022-07-12T14:49:49;6.23;;;1.10;;
3698;SDS011;1865;50.918;7.092;2022-07-12T14:52:15;6.40;;;1.33;;
3698;SDS011;1865;50.918;7.092;2022-07-12T14:54:41;7.13;;;1.10;;
3698;SDS011;1865;50.918;7.092;2022-07-12T14:57:07;6.67;;;1.30;;
3698;SDS011;1865;50.918;7.092;2022-07-12T14:59:33;7.30;;;1.07;;
3698;SDS011;1865;50.918;7.092;2022-07-12T15:01:58;9.70;;;1.23;;
3698;SDS011;1865;50.918;7.092;2022-07-12T15:04:25;6.63;;;1.17;;
3698;SDS011;1865;50.918;7.092;2022-07-12T15:06:50;7.00;;;1.50;;
3698;SDS011;1865;50.918;7.092;2022-07-12T15:09:16;9.17;;;1.23;;
3698;SDS011;1865;50.918;7.092;2022-07-12T15:11:41;6.30;;;1.20;;
3698;SDS011;1865;50.918;7.092;2022-07-12T15:14:07;7.63;;;1.10;;
3698;SDS011;1865;50.918;7.092;2022-07-12T15:16:33;6.97;;;1.20;;
3698;SDS011;1865;50.918;7.092;2022-07-12T15:18:58;7.90;;;1.40;;
3698;SDS011;1865;50.918;7.092;2022-07-12T15:21:24;7.23;;;1.20;;
3698;SDS011;1865;50.918;7.092;2022-07-12T15:23:50;9.93;;;1.10;;
3698;SDS011;1865;50.918;7.092;2022-07-12T15:26:16;6.90;;;1.17;;